Timeline UpdatesTrip UpdatesNews PostsPvt PostsTravel TipsAdmin PostsConv PostsFollowed PostsChat RequestsBlog PostsPNR Posts

Disclaimer
Search
 
 
Sun Apr 20, 2014 07:16:17 ISTHomeTrainsΣChainsAtlasPNRForumGalleryNewsFAQTripsMembersLoginFeedback
No Recent News for this Train
Other Trains in the News **new
Latest...
.
Tue Nov 19, 2013 (11:57PM)
⇐ Return Journey: Train# 56323

56324/Mangalore - Coimbatore Fast Passenger (UnReserved)

Nov 01 2013 (5:47AM)
Change Departure Station:
Change Arrival Station:
Post a Train Travel TipPost a Train Travel Tip **new
Post a Comment/Question/Picture/VideoPost a Comment/Question/Picture/Video
Pantry/Catering
???
RSA - Rake Sharing
RSA; with 56319/56320 Nagercoil Coimbatore Fast Passenger; Srivatsa Udupa
Rake/Coach Composition
LOCO=SLR=UR=UR=UR=UR=UR=UR=UR=UR=UR=UR=UR=UR=UR=UR=SLR
Loco
ED WDM 2
News    PNR    Forum    Time-Table    Availability    Fare Chart    Map    Arr/Dep History    Trips    Gallery    ΣChains    X/O    Timeline    
Travel Time: 1h 22m    8 halts    Distance: 67 km    Avg Speed: 49 km/hr
Type: Passenger
Zone: SR/Southern
Departs @ 08:29 (Avg 12m late)
Platform# ???
SMTWTFS
Manjeshwar/MJS 
Arrives @ 09:51 (Avg 25m late)
Platform# ???
SMTWTFS
Charvattur/CHV 

8 halts. 8 intermediate Stations between Manjeshwar and Charvattur

Show ALL intermediate Stations  Show Old Time-Table

#CodeStation NameX/OArrivesAvgDepartsAvgHaltPFDay#KmSpeedElevZoneAddress
1MAQMangalore Central (3)  -08:00+531-16.82114mSRMangalore 575001, Karnataka
2ULLUllal (2)  08:19+608:20+81m--1-10.37726mSRSomeshwar, Karnataka
3MJS»Manjeshwar (3)»  08:28+1108:29+121m--10.05912mSRManjeshwar, Kerala
4UAAUppala (2)X  08:36+1308:37+131m--16.95916mSRKasaragod District, Kerala
5KMQKumbala (2)O  08:47+1408:48+151m--116.77323mSRKumbla, Kerala
6KGQKasaragod (3)O  08:58+1609:00+172m--128.92918mSRTel: 04994 220800, Kerala
7KLADKalanad HaltXO  09:06+1909:07+191m--131.8663mSRKasaragod, Kerala
8KQKKottikkulam (2)X  09:13+1809:14+201m--138.44225mSRBekal, Kerala
9BFRBekal Fort (2)X  09:21+2209:22+221m--143.27511mSRPallikere, Kerala
10KZEKanhangad (3)  09:29+2209:31+242m--152.05115mSRKanhangad, Kerala
11NLENileshwar (2)  09:42+2509:43+251m--161.34012mSRNileswaram, Kerala
12CHV•Charvattur (3)•  09:51+2509:52+271m--166.56414mSRKasaragod district, Kerala
13TKQTrikkarippur  10:00+2810:01+281m--175.15313mSRKasargod district, Kerala
14PAYPayyanur (3)X  10:08+2710:09+281m--181.3210mSRKannur District, Kerala
15ELMEzhimala  10:17+2810:18+281m--184.17615mSRKannur District, Kerala
16PAZPayangadiX  10:25+2810:26+281m--192.95012mSRKannur District, Kerala
17KPQKannapuram (2)  10:35+2810:36+291m--1100.51209mSRKannur District, Kerala
18PPNSPappinisseri (2)  10:39+3110:40+311m--1106.5198mSRKannur District, Kerala
19VAPMValapattanam (2)  10:45+3110:46+311m--1108.0258mSRKannur District, Kerala
20CQLChirakkal (2)X  10:51+1210:52+121m--1110.11027mSRKannur district, Kerala
21CANKannur Main (3)  11:20+1011:25+175m31114.96214mSRKannur Tel: 0497 2705555, Kerala
22TLYThalassery (2)X  11:45+1811:46+201m--1135.6509mSRKannur, Kerala
23MAHEMahe (2)  11:57+2211:58+231m--1144.94516mSRMahe, Puducherry
24MUKEMukkali12:03+2312:04+231m--1148.64418mSRChombala, Kerala
25NAUNadapuram Road12:09+2312:10+231m--1152.36518mSRMadappallly, Kerala
26BDJVadakara (2)  12:15+2212:16+241m11157.79711mSRCalicut / Station Ph No : 0496-2524254, Kerala
27PYOLPayyoli (2)  12:22+2612:23+261m--1167.44912mSRPayyoli, Kerala
28QLDKoyilandy (3)  12:38+2612:39+281m--1179.74111mSRQuilandi, Kerala
29CLTKozhikode Main (4)X  13:15+1813:20+245m31204.02211mSRCalicut Tel: 0495 2701234, Kerala
30KULKallayi Kozhikode South (2)  13:25+2713:26+281m--1205.8610mSRCalicut, Kerala
31FKFerok (2)  13:34+3013:35+381m--1213.95719mSRFeroke, Kerala
32KNKadalundi (2)  13:40+4213:41+431m--1218.7828mSRKozhikode district, Kerala
33VLIVallikunnu (2)  13:45+4413:46+441m--1224.23713mSRVallikkunnu, Kerala
34PGIParappangadi (2)  13:54+4413:55+461m--1229.15419mSRParappanangadi, Kerala
35TATanur (3)O  14:04+4914:05+491m--1237.23711mSRMalappuram, Kerala
36TIRTirur (3)X  14:18+4114:20+422m31245.2579mSRTel: 0494 2422240, Kerala
37TUATirunnavaya (2)  14:29+4514:30+451m--1253.84310mSRThirunavaya, Kerala
38KTUKuttippuram (2)X  14:39+4414:40+451m--1260.36217mSRKuttippuram, Kerala
39PUMPallippuram  14:49+5014:50+511m--1269.6615mSRPalakkad, Kerala
40PTBPattambi (2)XO  14:59+5115:00+531m--1278.81221mSRPattambi, Kerala
41SRRShoranur Junction (7)X  16:00+1616:15+1615m51290.32926mSRShoranur ph.no 0466-2222913, Kerala
42MNURMannanur (2)  16:27+1516:28+171m--1296.14733mSRVaniamkulam Mannanur Rd, Kerala
43OTPOttappalam (2)  16:37+1616:38+171m--1303.24530mSROttapalam, Kerala
44PLPMPalappuram  16:44+1616:45+161m--1307.73136mSRKayarampara-Meetna Rd, Kerala
45LDYLakkidi (2)X  16:51+1616:52+181m--1310.75935mSRPalakkad, Kerala
46MNYMankara (2)  17:00+1817:01+181m--1318.55665mSRPalakkad, Kerala
47PLLParli (2)  17:09+1717:10+191m--1326.02163mSRPalakkad, Kerala
48PGTPalakkad Junction (4)XO  17:35+918:00+925m31334.64884mSRPalghat Tel: 0491 2555231, Kerala
49KJKDKanjikode (2)X  18:17+1918:18+201m--1348.3460mSRPalakkad, Kerala
50WRAWalayarX  18:34+2218:35+221m--1360.633213mSRPalakkad, Kerala
51ETMDEttimadai (2)  18:51+2118:52+211m--1369.544313mSREttimadai, Tamil Nadu
52MDKIMadukaraiX  18:59+2219:00+221m--1374.633361mSRCoimbatore, Tamil Nadu
53PTJPodanur Junction (4)  19:18+2719:20+272m11384.523400mSRPodanur jtn ph.no. 0422-2410784, Tamil Nadu
54CBECoimbatore Main Junction (6)  19:35+32---1390.4-411mSRCoimbatore 641001, Tamil Nadu
Scroll to Top
Scroll to Bottom